Belpre, Ohio
Current Conditions -  °F | °C
As of 3:53 PM on Saturday 25 Oct 2014 (Local Time) from KPKB Reporting Station
Overcast Overcast  
Wind Chill: 66°   Ceiling: 3500
Heat Index: 66°   Visibility: 10mi
Dew Point: 50°   Wind: 9mph
Humidity: 56%   Direction: 260°W
Pressure: 29.9"   Gusts: 18mph
Location:  39.28°N, 81.57°W
Report Text: KPKB 251953Z 26008G16KT 230V300 10SM OVC035 19/10 A2990 RMK AO2 SLP125 T01890100
Loading
Personal Weather Stations






























Interactive Weather Map
Tropical Storm Tracking
New forecast layout! Learn more

10-Day Weather Forecast

Advertisements
Track Severe Weather on mobile